createdAt,value
2018-07-30T00:00:10.592Z,36.47
2018-07-30T00:02:45.986Z,33.13
2018-07-30T00:05:16.707Z,33.37
2018-07-30T00:07:47.158Z,30.77
2018-07-30T00:10:17.557Z,31.03
2018-07-30T00:12:47.462Z,34.57
2018-07-30T00:15:17.936Z,30.13
2018-07-30T00:17:48.539Z,31.30
2018-07-30T00:20:19.095Z,26.40
2018-07-30T00:22:49.954Z,28.67
2018-07-30T00:25:20.518Z,28.30
2018-07-30T00:27:50.364Z,28.13
2018-07-30T00:30:19.976Z,28.50
2018-07-30T00:32:50.523Z,27.43
2018-07-30T00:35:21.256Z,29.07
2018-07-30T00:37:52.118Z,30.63
2018-07-30T00:40:22.841Z,31.23
2018-07-30T00:42:53.481Z,30.47
2018-07-30T00:45:24.040Z,33.50
2018-07-30T00:47:54.178Z,33.23
2018-07-30T00:50:23.864Z,29.57
2018-07-30T00:52:54.467Z,29.73
2018-07-30T00:55:25.229Z,31.93
2018-07-30T00:57:56.020Z,32.53
2018-07-30T01:00:26.568Z,29.33
2018-07-30T01:02:57.349Z,31.57
2018-07-30T01:05:28.165Z,27.30
2018-07-30T01:07:58.589Z,27.97
2018-07-30T01:10:29.122Z,27.93
2018-07-30T01:12:59.883Z,28.73
2018-07-30T01:15:30.501Z,31.70
2018-07-30T01:18:01.027Z,30.77
2018-07-30T01:20:31.586Z,29.87
2018-07-30T01:23:02.278Z,28.30
2018-07-30T01:25:32.143Z,29.43
2018-07-30T01:28:02.415Z,27.80
2018-07-30T01:30:32.477Z,26.03
2018-07-30T01:33:02.885Z,25.47
2018-07-30T01:35:33.441Z,27.07
2018-07-30T01:38:04.000Z,26.80
2018-07-30T01:40:34.516Z,26.53
2018-07-30T01:43:05.055Z,26.73
2018-07-30T01:45:35.368Z,29.87
2018-07-30T01:48:05.970Z,30.13
2018-07-30T01:50:36.608Z,27.93
2018-07-30T01:53:07.216Z,25.27
2018-07-30T01:55:37.086Z,29.10
2018-07-30T01:58:07.741Z,26.57
2018-07-30T02:00:38.441Z,26.73
2018-07-30T02:03:09.032Z,29.73
2018-07-30T02:05:39.663Z,28.77
2018-07-30T02:08:10.146Z,31.00
2018-07-30T02:10:41.535Z,29.10
2018-07-30T02:13:12.406Z,29.20
2018-07-30T02:15:42.999Z,33.60
2018-07-30T02:18:13.976Z,30.13
2018-07-30T02:20:44.631Z,33.20
2018-07-30T02:23:15.309Z,30.53
2018-07-30T02:25:45.215Z,29.00
2018-07-30T02:28:15.725Z,30.03
2018-07-30T02:30:46.390Z,30.93
2018-07-30T02:33:17.006Z,27.50
2018-07-30T02:35:47.012Z,28.73
2018-07-30T02:38:17.452Z,33.40
2018-07-30T02:40:47.247Z,28.57
2018-07-30T02:43:17.791Z,27.13
2018-07-30T02:45:48.304Z,32.07
2018-07-30T02:48:18.845Z,29.77
2018-07-30T02:50:49.230Z,29.87
2018-07-30T02:53:19.694Z,30.47
2018-07-30T02:55:50.074Z,28.03
2018-07-30T02:58:20.730Z,35.00
2018-07-30T03:00:51.444Z,29.97
2018-07-30T03:03:22.116Z,33.23
2018-07-30T03:05:51.976Z,33.63
2018-07-30T03:08:22.338Z,31.83
2018-07-30T03:10:52.905Z,34.47
2018-07-30T03:13:23.333Z,30.07
2018-07-30T03:15:53.901Z,31.37
2018-07-30T03:18:24.373Z,27.33
2018-07-30T03:20:54.487Z,28.50
2018-07-30T03:23:24.806Z,41.00
2018-07-30T03:25:55.339Z,37.93
2018-07-30T03:28:25.819Z,32.03
2018-07-30T03:30:56.507Z,33.70
2018-07-30T03:33:26.540Z,33.90
2018-07-30T03:35:57.226Z,31.67
2018-07-30T03:38:27.839Z,29.53
2018-07-30T03:40:59.191Z,37.10
2018-07-30T03:43:29.739Z,34.13
2018-07-30T03:46:00.342Z,31.47
2018-07-30T03:48:31.032Z,34.90
2018-07-30T03:51:01.895Z,30.17
2018-07-30T03:53:32.336Z,31.73
2018-07-30T03:56:03.153Z,32.03
2018-07-30T03:58:33.706Z,28.33
2018-07-30T04:01:04.687Z,32.87
2018-07-30T04:03:35.268Z,32.33
2018-07-30T04:06:07.177Z,31.00
2018-07-30T04:08:37.753Z,29.93
2018-07-30T04:11:08.254Z,25.40
2018-07-30T04:13:39.372Z,27.73
2018-07-30T04:16:09.960Z,35.67
2018-07-30T04:18:40.803Z,30.93
2018-07-30T04:21:11.333Z,29.37
2018-07-30T04:23:42.020Z,38.00
2018-07-30T04:26:12.562Z,32.67
2018-07-30T04:28:43.281Z,33.07
2018-07-30T04:31:13.672Z,32.97
2018-07-30T04:33:44.597Z,32.70
2018-07-30T04:36:15.849Z,26.30
2018-07-30T04:38:46.673Z,32.13
2018-07-30T04:41:17.238Z,35.47
2018-07-30T04:43:47.716Z,31.97
2018-07-30T04:46:18.444Z,36.20
2018-07-30T04:48:48.824Z,32.03
2018-07-30T04:51:19.402Z,33.20
2018-07-30T04:53:50.089Z,36.10
2018-07-30T04:56:20.746Z,35.50
2018-07-30T04:58:50.848Z,36.40
2018-07-30T05:01:21.279Z,36.17
2018-07-30T05:03:51.833Z,37.87
2018-07-30T05:06:22.269Z,34.00
2018-07-30T05:08:52.823Z,32.83
2018-07-30T05:11:23.475Z,32.03
2018-07-30T05:13:53.275Z,37.83
2018-07-30T05:16:23.643Z,33.03
2018-07-30T05:18:54.346Z,32.00
2018-07-30T05:21:24.867Z,29.70
2018-07-30T05:23:55.253Z,32.63
2018-07-30T05:26:25.756Z,31.17
2018-07-30T05:28:56.625Z,30.97
2018-07-30T05:31:27.191Z,30.10
2018-07-30T05:33:57.625Z,35.80
2018-07-30T05:36:28.209Z,29.90
2018-07-30T05:38:58.796Z,32.93
2018-07-30T05:41:29.738Z,32.47
2018-07-30T05:44:00.299Z,26.63
2018-07-30T05:46:30.930Z,28.33
2018-07-30T05:49:01.606Z,39.17
2018-07-30T05:51:32.110Z,36.93
2018-07-30T05:54:03.305Z,32.50
2018-07-30T05:56:33.853Z,29.60
2018-07-30T05:59:04.612Z,33.10
2018-07-30T06:01:35.323Z,25.77
2018-07-30T06:04:06.130Z,31.60
2018-07-30T06:06:36.559Z,30.00
2018-07-30T06:09:10.103Z,31.77
2018-07-30T06:11:41.400Z,25.57
2018-07-30T06:14:12.031Z,26.93
2018-07-30T06:16:42.709Z,26.53
2018-07-30T06:19:13.354Z,31.30
2018-07-30T06:21:43.923Z,24.23
2018-07-30T06:24:14.392Z,26.77
2018-07-30T06:26:45.168Z,25.37
2018-07-30T06:29:15.624Z,24.77
2018-07-30T06:31:46.559Z,23.80
2018-07-30T06:34:17.282Z,22.40
2018-07-30T06:36:48.162Z,20.97
2018-07-30T06:39:19.023Z,20.10
2018-07-30T06:41:49.442Z,22.67
2018-07-30T06:44:19.884Z,20.63
2018-07-30T06:46:50.373Z,20.97
2018-07-30T06:49:21.085Z,16.83
2018-07-30T06:51:51.638Z,16.83
2018-07-30T06:54:22.200Z,17.87
2018-07-30T06:56:53.096Z,15.77
2018-07-30T06:59:24.093Z,16.83
2018-07-30T07:01:54.707Z,18.57
2018-07-30T07:04:25.342Z,14.40
2018-07-30T07:06:55.895Z,15.93
2018-07-30T07:09:26.825Z,13.17
2018-07-30T07:11:57.615Z,15.23
2018-07-30T07:14:28.450Z,15.60
2018-07-30T07:16:59.060Z,15.37
2018-07-30T07:19:29.781Z,14.20
2018-07-30T07:22:00.587Z,14.30
2018-07-30T07:24:31.253Z,17.13
2018-07-30T07:27:02.082Z,20.33
2018-07-30T07:29:32.823Z,17.63
2018-07-30T07:32:03.920Z,18.40
2018-07-30T07:34:34.603Z,36.40
2018-07-30T07:37:05.669Z,22.20
2018-07-30T07:39:36.409Z,24.33
2018-07-30T07:42:07.243Z,25.80
2018-07-30T07:44:37.123Z,27.33
2018-07-30T07:47:08.300Z,20.33
2018-07-30T07:49:38.904Z,25.03
2018-07-30T07:52:09.574Z,26.50
2018-07-30T07:54:40.099Z,22.67
2018-07-30T07:57:11.032Z,18.83
2018-07-30T07:59:40.881Z,19.13
2018-07-30T08:02:11.065Z,19.13
2018-07-30T08:04:41.477Z,16.73
2018-07-30T08:07:12.151Z,15.47
2018-07-30T08:09:43.472Z,17.73
2018-07-30T08:12:14.210Z,17.30
2018-07-30T08:14:44.835Z,19.20
2018-07-30T08:17:15.379Z,16.47
2018-07-30T08:19:45.360Z,13.83
2018-07-30T08:22:15.205Z,19.90
2018-07-30T08:24:45.648Z,15.57
2018-07-30T08:27:16.119Z,19.43
2018-07-30T08:29:46.808Z,15.63
2018-07-30T08:32:17.492Z,15.10
2018-07-30T08:34:48.323Z,20.37
2018-07-30T08:37:18.896Z,15.97
2018-07-30T08:39:48.723Z,20.33
2018-07-30T08:42:18.915Z,15.93
2018-07-30T08:44:49.294Z,14.43
2018-07-30T08:47:19.851Z,14.53
2018-07-30T08:49:50.416Z,19.13
2018-07-30T08:52:21.464Z,35.87
2018-07-30T08:54:52.177Z,17.63
2018-07-30T08:57:22.573Z,20.90
2018-07-30T08:59:52.938Z,15.03
2018-07-30T09:02:22.934Z,17.33
2018-07-30T09:04:53.352Z,13.77
2018-07-30T09:07:23.796Z,11.80
2018-07-30T09:09:54.617Z,12.23
2018-07-30T09:12:25.270Z,10.70
2018-07-30T09:14:55.734Z,12.00
2018-07-30T09:17:26.500Z,13.50
2018-07-30T09:19:59.309Z,17.30
2018-07-30T09:22:31.828Z,14.30
2018-07-30T09:25:04.149Z,14.90
2018-07-30T09:27:34.773Z,16.33
2018-07-30T09:30:05.991Z,11.83
2018-07-30T09:32:36.660Z,18.37
2018-07-30T09:35:07.217Z,13.23
2018-07-30T09:37:38.233Z,9.93
2018-07-30T09:40:08.656Z,9.23
2018-07-30T09:42:39.356Z,10.57
2018-07-30T09:45:10.291Z,11.67
2018-07-30T09:47:40.893Z,9.83
2018-07-30T09:50:11.836Z,16.33
2018-07-30T09:52:42.622Z,10.83
2018-07-30T09:55:13.232Z,10.23
2018-07-30T09:57:43.987Z,13.90
2018-07-30T10:00:14.996Z,11.73
2018-07-30T10:02:45.485Z,9.53
2018-07-30T10:05:16.211Z,10.07
2018-07-30T10:07:47.113Z,10.97
2018-07-30T10:10:17.565Z,10.73
2018-07-30T10:12:48.164Z,11.23
2018-07-30T10:15:18.744Z,10.40
2018-07-30T10:17:49.182Z,9.77
2018-07-30T10:20:19.766Z,12.50
2018-07-30T10:22:50.680Z,9.57
2018-07-30T10:25:21.320Z,12.43
2018-07-30T10:27:51.777Z,11.57
2018-07-30T10:30:22.502Z,11.50
2018-07-30T10:32:53.386Z,9.33
2018-07-30T10:35:24.227Z,12.43
2018-07-30T10:37:54.928Z,9.47
2018-07-30T10:40:25.565Z,10.23
2018-07-30T10:42:56.272Z,15.33
2018-07-30T10:45:26.901Z,17.00
2018-07-30T10:47:57.854Z,11.47
2018-07-30T10:50:28.532Z,20.77
2018-07-30T10:52:59.115Z,12.37
2018-07-30T10:55:29.676Z,10.53
2018-07-30T10:57:59.463Z,13.17
2018-07-30T11:00:29.915Z,9.37
2018-07-30T11:02:59.817Z,7.90
2018-07-30T11:05:30.137Z,11.47
2018-07-30T11:08:00.983Z,11.80
2018-07-30T11:10:30.889Z,8.17
2018-07-30T11:13:01.701Z,8.57
2018-07-30T11:15:32.320Z,6.93
2018-07-30T11:18:02.819Z,9.53
2018-07-30T11:20:33.437Z,8.97
2018-07-30T11:23:03.968Z,7.30
2018-07-30T11:25:33.929Z,5.73
2018-07-30T11:28:04.482Z,12.40
2018-07-30T11:30:34.930Z,8.63
2018-07-30T11:33:05.623Z,7.40
2018-07-30T11:35:36.682Z,8.47
2018-07-30T11:38:07.190Z,8.50
2018-07-30T11:40:37.811Z,11.30
2018-07-30T11:43:08.359Z,8.70
2018-07-30T11:45:39.154Z,8.53
2018-07-30T11:48:09.824Z,12.40
2018-07-30T11:50:40.768Z,8.83
2018-07-30T11:53:11.422Z,12.40
2018-07-30T11:55:41.890Z,7.93
2018-07-30T11:58:12.404Z,12.00
2018-07-30T12:00:42.945Z,12.00
2018-07-30T12:03:13.568Z,11.90
2018-07-30T12:05:44.089Z,8.10
2018-07-30T12:08:14.673Z,9.40
2018-07-30T12:10:45.720Z,8.93
2018-07-30T12:13:16.670Z,13.70
2018-07-30T12:15:47.327Z,12.57
2018-07-30T12:18:17.309Z,9.03
2018-07-30T12:20:47.652Z,11.70
2018-07-30T12:23:19.112Z,9.47
2018-07-30T12:25:49.633Z,11.00
2018-07-30T12:28:20.192Z,7.80
2018-07-30T12:30:50.652Z,12.23
2018-07-30T12:33:21.388Z,8.17
2018-07-30T12:35:51.747Z,7.50
2018-07-30T12:38:22.265Z,10.67
2018-07-30T12:40:52.928Z,21.40
2018-07-30T12:43:22.839Z,9.87
2018-07-30T12:45:53.363Z,8.57
2018-07-30T12:48:23.475Z,9.97
2018-07-30T12:50:54.213Z,8.80
2018-07-30T12:53:25.113Z,11.10
2018-07-30T12:55:58.688Z,9.73
2018-07-30T12:58:29.126Z,11.47
2018-07-30T13:00:59.747Z,9.90
2018-07-30T13:03:30.203Z,9.20
2018-07-30T13:06:00.954Z,7.37
2018-07-30T13:08:31.625Z,17.47
2018-07-30T13:11:02.313Z,16.80
2018-07-30T13:13:32.932Z,10.70
2018-07-30T13:16:03.757Z,9.90
2018-07-30T13:18:34.770Z,8.33
2018-07-30T13:21:05.643Z,9.90
2018-07-30T13:23:36.313Z,10.67
2018-07-30T13:26:07.107Z,9.47
2018-07-30T13:28:37.808Z,10.63
2018-07-30T13:31:08.719Z,10.53
2018-07-30T13:33:39.143Z,14.17
2018-07-30T13:36:09.696Z,10.43
2018-07-30T13:38:40.252Z,10.97
2018-07-30T13:41:10.731Z,10.63
2018-07-30T13:43:41.131Z,9.33
2018-07-30T13:46:11.628Z,15.53
2018-07-30T13:48:42.391Z,11.77
2018-07-30T13:51:12.959Z,11.47
2018-07-30T13:53:42.776Z,11.43
2018-07-30T13:56:13.168Z,10.47
2018-07-30T13:58:43.930Z,11.53
2018-07-30T14:01:13.738Z,10.53
2018-07-30T14:03:44.064Z,11.27
2018-07-30T14:06:14.647Z,13.67
2018-07-30T14:08:45.281Z,12.23
2018-07-30T14:11:15.755Z,12.47
2018-07-30T14:13:45.635Z,10.33
2018-07-30T14:16:15.931Z,11.63
2018-07-30T14:18:46.581Z,15.00
2018-07-30T14:21:16.720Z,11.10
2018-07-30T14:23:47.104Z,10.00
2018-07-30T14:26:17.631Z,14.93
2018-07-30T14:28:48.250Z,15.43
2018-07-30T14:31:19.135Z,12.50
2018-07-30T14:33:49.712Z,16.13
2018-07-30T14:36:19.615Z,12.07
2018-07-30T14:38:50.233Z,14.67
2018-07-30T14:41:20.920Z,9.83
2018-07-30T14:43:50.851Z,12.33
2018-07-30T14:46:21.384Z,13.97
2018-07-30T14:48:52.201Z,15.70
2018-07-30T14:51:22.756Z,12.13
2018-07-30T14:53:52.708Z,13.13
2018-07-30T14:56:23.698Z,28.43
2018-07-30T14:58:54.399Z,13.27
2018-07-30T15:01:24.467Z,13.93
2018-07-30T15:03:55.179Z,13.40
2018-07-30T15:06:25.729Z,14.13
2018-07-30T15:08:56.345Z,12.27
2018-07-30T15:11:26.804Z,11.33
2018-07-30T15:13:57.427Z,13.57
2018-07-30T15:16:28.247Z,19.40
2018-07-30T15:18:58.861Z,26.63
2018-07-30T15:21:30.449Z,12.63
2018-07-30T15:24:01.382Z,26.50
2018-07-30T15:26:32.245Z,17.17
2018-07-30T15:29:03.011Z,20.70
2018-07-30T15:31:33.593Z,24.13
2018-07-30T15:34:04.248Z,17.73
2018-07-30T15:36:34.824Z,20.17
2018-07-30T15:39:07.332Z,19.80
2018-07-30T15:41:38.241Z,18.93
2018-07-30T15:44:09.043Z,16.20
2018-07-30T15:46:39.892Z,22.57
2018-07-30T15:49:11.061Z,23.07
2018-07-30T15:51:41.737Z,19.20
2018-07-30T15:54:12.273Z,22.27
2018-07-30T15:56:42.894Z,18.07
2018-07-30T15:59:13.183Z,22.10
2018-07-30T16:01:43.030Z,24.47
2018-07-30T16:04:13.731Z,19.47
2018-07-30T16:06:44.427Z,23.40
2018-07-30T16:09:15.440Z,19.53
2018-07-30T16:11:46.199Z,26.50
2018-07-30T16:14:17.012Z,14.67
2018-07-30T16:16:47.799Z,22.80
2018-07-30T16:19:18.728Z,17.70
2018-07-30T16:21:49.375Z,16.77
2018-07-30T16:24:19.955Z,13.97
2018-07-30T16:26:50.185Z,11.87
2018-07-30T16:29:20.920Z,18.70
2018-07-30T16:31:51.633Z,15.80
2018-07-30T16:34:22.724Z,19.57
2018-07-30T16:36:52.985Z,17.70
2018-07-30T16:39:23.455Z,15.67
2018-07-30T16:41:53.334Z,15.73
2018-07-30T16:44:23.692Z,12.50
2018-07-30T16:46:54.697Z,13.73
2018-07-30T16:49:25.575Z,11.97
2018-07-30T16:51:56.403Z,13.10
2018-07-30T16:54:26.976Z,13.77
2018-07-30T16:56:57.747Z,13.90
2018-07-30T16:59:28.646Z,18.20
2018-07-30T17:01:59.401Z,10.93
2018-07-30T17:04:30.333Z,17.43
2018-07-30T17:07:01.153Z,18.90
2018-07-30T17:09:31.852Z,16.10
2018-07-30T17:12:01.726Z,13.83
2018-07-30T17:14:32.380Z,10.03
2018-07-30T17:17:02.311Z,12.33
2018-07-30T17:19:33.011Z,13.50
2018-07-30T17:22:03.637Z,21.90
2018-07-30T17:24:34.458Z,36.77
2018-07-30T17:27:05.082Z,19.83
2018-07-30T17:29:36.235Z,16.53
2018-07-30T17:32:07.264Z,14.00
2018-07-30T17:34:37.891Z,27.47
2018-07-30T17:37:09.096Z,22.53
2018-07-30T17:39:39.094Z,18.37
2018-07-30T17:42:09.706Z,17.70
2018-07-30T17:44:40.381Z,15.43
2018-07-30T17:47:10.966Z,19.07
2018-07-30T17:49:41.395Z,18.43
2018-07-30T17:52:12.320Z,14.63
2018-07-30T17:54:42.840Z,14.03
2018-07-30T17:57:13.659Z,14.27
2018-07-30T17:59:43.858Z,15.17
2018-07-30T18:02:14.434Z,11.50
2018-07-30T18:04:44.956Z,14.97
2018-07-30T18:07:15.704Z,14.50
2018-07-30T18:09:46.291Z,18.37
2018-07-30T18:12:16.896Z,21.83
2018-07-30T18:14:47.653Z,17.83
2018-07-30T18:17:17.616Z,17.77
2018-07-30T18:19:48.064Z,17.03
2018-07-30T18:22:18.643Z,17.83
2018-07-30T18:24:49.240Z,18.70
2018-07-30T18:27:19.981Z,21.03
2018-07-30T18:29:50.678Z,21.17
2018-07-30T18:32:21.189Z,22.00
2018-07-30T18:34:51.864Z,23.83
2018-07-30T18:37:22.792Z,16.97
2018-07-30T18:39:53.713Z,24.20
2018-07-30T18:42:24.445Z,24.37
2018-07-30T18:44:55.254Z,22.07
2018-07-30T18:47:25.732Z,19.23
2018-07-30T18:49:56.631Z,23.67
2018-07-30T18:52:27.501Z,38.23
2018-07-30T18:54:58.356Z,23.93
2018-07-30T18:57:28.951Z,19.73
2018-07-30T18:59:59.799Z,21.10
2018-07-30T19:02:30.489Z,33.87
2018-07-30T19:05:01.097Z,30.80
2018-07-30T19:07:31.824Z,29.97
2018-07-30T19:10:02.516Z,38.40
2018-07-30T19:12:33.151Z,36.13
2018-07-30T19:15:03.980Z,38.77
2018-07-30T19:17:34.713Z,25.87
2018-07-30T19:20:05.709Z,25.53
2018-07-30T19:22:36.292Z,29.47
2018-07-30T19:25:06.788Z,29.90
2018-07-30T19:27:37.460Z,29.47
2018-07-30T19:30:08.251Z,26.00
2018-07-30T19:32:38.800Z,20.10
2018-07-30T19:35:09.463Z,19.00
2018-07-30T19:37:40.035Z,18.20
2018-07-30T19:40:10.521Z,16.67
2018-07-30T19:42:41.083Z,15.27
2018-07-30T19:45:11.624Z,13.10
2018-07-30T19:47:42.419Z,15.60
2018-07-30T19:50:12.914Z,15.17
2018-07-30T19:52:43.577Z,15.30
2018-07-30T19:55:14.468Z,22.23
2018-07-30T19:57:45.473Z,13.47
2018-07-30T20:00:16.183Z,17.37
2018-07-30T20:02:46.962Z,17.90
2018-07-30T20:05:17.678Z,18.07
2018-07-30T20:07:48.236Z,25.03
2018-07-30T20:10:18.860Z,22.03
2018-07-30T20:12:49.556Z,19.07
2018-07-30T20:15:20.210Z,20.50
2018-07-30T20:17:51.004Z,22.30
2018-07-30T20:20:21.760Z,24.43
2018-07-30T20:22:52.886Z,27.07
2018-07-30T20:25:23.920Z,27.40
2018-07-30T20:27:54.563Z,28.47
2018-07-30T20:30:25.476Z,23.30
2018-07-30T20:32:56.134Z,28.25
2018-07-30T20:35:26.932Z,21.63
2018-07-30T20:37:57.579Z,18.67
2018-07-30T20:40:28.291Z,20.40
2018-07-30T20:42:58.916Z,29.83
2018-07-30T20:45:29.589Z,22.93
2018-07-30T20:48:00.212Z,26.07
2018-07-30T20:50:31.094Z,29.43
2018-07-30T20:53:01.990Z,29.30
2018-07-30T20:55:32.519Z,29.53
2018-07-30T20:58:03.528Z,33.30
2018-07-30T21:00:33.437Z,24.73
2018-07-30T21:03:04.371Z,25.70
2018-07-30T21:05:40.146Z,38.07
2018-07-30T21:08:11.056Z,36.33
2018-07-30T21:10:41.987Z,35.53
2018-07-30T21:13:12.807Z,36.80
2018-07-30T21:15:43.412Z,39.67
2018-07-30T21:18:13.978Z,76.03
2018-07-30T21:20:44.856Z,61.97
2018-07-30T21:23:15.790Z,54.60
2018-07-30T21:25:46.427Z,51.23
2018-07-30T21:28:17.056Z,41.87
2018-07-30T21:30:47.656Z,41.27
2018-07-30T21:33:18.367Z,35.27
2018-07-30T21:35:49.305Z,39.63
2018-07-30T21:38:19.916Z,46.43
2018-07-30T21:40:50.589Z,52.13
2018-07-30T21:43:21.395Z,45.97
2018-07-30T21:45:51.862Z,42.10
2018-07-30T21:48:21.707Z,40.13
2018-07-30T21:50:51.499Z,51.77
2018-07-30T21:53:21.810Z,46.33
2018-07-30T21:55:52.441Z,40.73
2018-07-30T21:58:22.978Z,47.73
2018-07-30T22:00:57.620Z,43.70
2018-07-30T22:03:28.379Z,39.83
2018-07-30T22:06:01.964Z,37.80
2018-07-30T22:08:32.502Z,37.10
2018-07-30T22:11:03.055Z,36.13
2018-07-30T22:13:33.683Z,32.73
2018-07-30T22:16:04.378Z,32.20
2018-07-30T22:18:34.881Z,25.37
2018-07-30T22:21:05.438Z,32.57
2018-07-30T22:23:35.240Z,28.23
2018-07-30T22:26:06.028Z,31.33
2018-07-30T22:28:36.531Z,31.07
2018-07-30T22:31:07.929Z,31.53
2018-07-30T22:33:38.860Z,23.57
2018-07-30T22:36:09.493Z,25.03
2018-07-30T22:38:40.012Z,31.10
2018-07-30T22:41:10.620Z,24.57
2018-07-30T22:43:41.639Z,26.37
2018-07-30T22:46:12.162Z,25.97
2018-07-30T22:48:42.059Z,27.63
2018-07-30T22:51:12.600Z,23.80
2018-07-30T22:53:42.539Z,24.03
2018-07-30T22:56:12.973Z,27.93
2018-07-30T22:58:43.312Z,31.53
2018-07-30T23:01:13.840Z,44.77
2018-07-30T23:03:44.380Z,24.47
2018-07-30T23:06:14.839Z,22.17
2018-07-30T23:08:45.223Z,21.07
2018-07-30T23:11:15.859Z,24.20
2018-07-30T23:13:46.416Z,21.37
2018-07-30T23:16:16.981Z,22.07
2018-07-30T23:18:47.827Z,20.97
2018-07-30T23:21:18.320Z,20.57
2018-07-30T23:23:48.780Z,22.20
2018-07-30T23:26:18.923Z,18.73
2018-07-30T23:28:48.705Z,20.73
2018-07-30T23:31:19.099Z,19.20
2018-07-30T23:33:49.831Z,20.37
2018-07-30T23:36:20.444Z,19.20
2018-07-30T23:38:51.372Z,21.87
2018-07-30T23:41:22.893Z,26.13
2018-07-30T23:43:53.518Z,23.40
2018-07-30T23:46:24.176Z,25.13
2018-07-30T23:48:54.804Z,22.50
2018-07-30T23:51:25.554Z,24.73
2018-07-30T23:53:56.062Z,23.07
2018-07-30T23:56:26.565Z,27.00
2018-07-30T23:58:57.173Z,27.90
